Time;durP1;ratioP1;P1;durP2;ratioP2;P2;SDS_P1;SDS_P2;PMS_P1;PMS_P2;Temp;Humidity;BMP_temperature;BMP_pressure;BME280_temperature;BME280_humidity;BME280_pressure;Samples;Min_cycle;Max_cycle;Signal;HPM_P1;HPM_P2
2021/06/29 00:01:09;;;;;;;9.45;6.72;;;;;;;22.89;59.85;100535.72;1805885;77;22222;-59
2021/06/29 00:04:02;;;;;;;10.70;7.25;;;;;;;22.94;59.78;100530.93;1819711;77;22601;-53
2021/06/29 00:06:35;;;;;;;13.88;7.35;;;;;;;22.94;59.69;100534.08;1814253;77;22203;-53
2021/06/29 00:09:08;;;;;;;11.88;7.83;;;;;;;22.68;60.33;100537.89;1834512;77;22179;-53
2021/06/29 00:11:43;;;;;;;11.18;8.05;;;;;;;22.69;60.33;100533.77;1812397;77;22202;-59
2021/06/29 00:14:16;;;;;;;12.73;7.75;;;;;;;22.69;60.22;100538.28;1834492;77;22618;-59
2021/06/29 00:17:09;;;;;;;11.73;7.80;;;;;;;22.96;59.32;100534.35;1789315;77;22226;-59
2021/06/29 00:19:42;;;;;;;9.63;7.00;;;;;;;22.92;59.29;100541.36;1834512;77;22567;-59
2021/06/29 00:22:33;;;;;;;9.93;7.45;;;;;;;22.78;59.57;100537.70;1834460;77;22144;-59
2021/06/29 00:25:09;;;;;;;11.65;7.55;;;;;;;22.61;59.95;100536.53;1852789;77;22159;-59
2021/06/29 00:28:00;;;;;;;12.30;7.40;;;;;;;22.49;60.59;100534.97;1834455;77;22167;-59
2021/06/29 00:30:39;;;;;;;17.65;8.05;;;;;;;22.61;60.48;100534.70;1820558;77;22663;-53
2021/06/29 00:33:13;;;;;;;11.75;8.03;;;;;;;22.60;60.62;100534.31;1819834;77;22167;-53
2021/06/29 00:35:46;;;;;;;10.58;7.37;;;;;;;22.65;60.52;100541.61;1819036;77;22177;-59
2021/06/29 00:38:19;;;;;;;11.50;8.00;;;;;;;22.62;60.67;100532.41;1834460;77;22200;-59
2021/06/29 00:41:31;;;;;;;11.45;7.50;;;;;;;22.63;60.70;100530.59;1804309;77;22685;-54
2021/06/29 00:44:05;;;;;;;12.30;7.87;;;;;;;22.67;60.63;100529.46;1833432;77;22146;-53
2021/06/29 00:46:38;;;;;;;9.85;7.70;;;;;;;22.64;60.70;100529.16;1813864;77;22605;-53
2021/06/29 00:49:12;;;;;;;13.00;7.67;;;;;;;22.63;60.69;100519.38;1851846;77;22178;-53
2021/06/29 00:51:45;;;;;;;11.38;7.80;;;;;;;22.62;60.70;100523.51;1791268;77;22174;-53
2021/06/29 00:54:18;;;;;;;12.78;7.87;;;;;;;22.59;60.71;100519.17;1852808;77;22191;-53
2021/06/29 00:56:51;;;;;;;11.40;7.35;;;;;;;22.58;60.66;100523.69;1810904;77;22174;-53
2021/06/29 00:59:24;;;;;;;13.68;7.45;;;;;;;22.56;60.87;100526.06;1829984;77;22147;-53
2021/06/29 01:01:57;;;;;;;12.53;7.50;;;;;;;22.52;60.95;100522.72;1809122;77;22191;-59
2021/06/29 01:04:49;;;;;;;12.28;8.13;;;;;;;22.55;61.02;100520.31;1834447;77;22143;-59
2021/06/29 01:07:23;;;;;;;11.08;8.18;;;;;;;22.37;61.44;100520.91;1803611;77;22677;-53
2021/06/29 01:09:56;;;;;;;8.60;7.10;;;;;;;22.31;61.69;100515.91;1834580;77;22179;-58
2021/06/29 01:12:29;;;;;;;8.90;7.22;;;;;;;22.30;61.76;100520.92;1819971;77;22650;-53
2021/06/29 01:15:23;;;;;;;9.35;7.10;;;;;;;22.24;62.06;100517.64;1831235;77;22171;-53
2021/06/29 01:17:57;;;;;;;10.18;6.85;;;;;;;22.21;62.19;100523.19;1828999;77;22551;-58
2021/06/29 01:20:33;;;;;;;12.10;7.65;;;;;;;22.27;62.21;100524.63;1829323;77;22171;-59
2021/06/29 01:23:27;;;;;;;9.45;7.15;;;;;;;22.27;62.35;100513.91;1819638;77;22570;-53
2021/06/29 01:26:19;;;;;;;8.15;7.28;;;;;;;22.27;62.26;100518.80;1821869;77;22645;-53
2021/06/29 01:29:06;;;;;;;8.75;7.03;;;;;;;22.28;62.09;100514.30;1834468;77;20242;-59
2021/06/29 01:31:58;;;;;;;11.18;7.45;;;;;;;22.27;62.07;100513.45;1789501;77;22226;-53
2021/06/29 01:34:32;;;;;;;12.10;7.70;;;;;;;22.27;62.03;100514.78;1852825;77;22265;-53
2021/06/29 01:37:05;;;;;;;10.08;7.37;;;;;;;22.30;61.99;100522.27;1794140;77;22609;-53
2021/06/29 01:40:05;;;;;;;14.00;7.35;;;;;;;22.28;62.16;100516.52;1834381;77;22144;-53
2021/06/29 01:42:36;;;;;;;8.50;7.35;;;;;;;22.33;62.23;100518.91;1814981;77;22139;-59
2021/06/29 01:45:29;;;;;;;16.07;8.08;;;;;;;22.32;62.27;100525.22;1825994;77;22577;-58
2021/06/29 01:48:23;;;;;;;15.55;8.15;;;;;;;22.32;62.23;100521.20;1832106;77;22204;-54
2021/06/29 01:51:15;;;;;;;9.35;8.05;;;;;;;22.31;62.12;100519.94;1811529;77;22205;-53
2021/06/29 01:54:28;;;;;;;10.10;7.30;;;;;;;22.42;61.76;100528.20;1825931;77;22691;-60
2021/06/29 01:57:01;;;;;;;13.30;7.08;;;;;;;22.43;61.61;100524.14;1808865;77;22633;-59
2021/06/29 01:59:54;;;;;;;11.97;7.55;;;;;;;22.36;61.83;100521.87;1831652;77;22155;-53
2021/06/29 02:02:27;;;;;;;8.65;7.33;;;;;;;22.31;61.87;100523.50;1820173;77;22758;-53
2021/06/29 02:05:00;;;;;;;13.00;7.90;;;;;;;22.26;61.91;100521.10;1809345;77;22182;-53
2021/06/29 02:07:34;;;;;;;9.28;7.78;;;;;;;22.24;61.94;100519.45;1834481;77;22176;-58
2021/06/29 02:10:09;;;;;;;11.40;7.75;;;;;;;22.21;61.97;100515.14;1833686;77;22180;-59
2021/06/29 02:13:01;;;;;;;10.50;8.33;;;;;;;22.21;61.96;100519.16;1828330;77;22183;-59
2021/06/29 02:15:34;;;;;;;12.23;7.75;;;;;;;22.18;61.90;100522.48;1828219;77;22705;-53
2021/06/29 02:18:07;;;;;;;13.90;8.50;;;;;;;22.16;61.88;100520.37;1852757;77;22574;-54
2021/06/29 02:20:40;;;;;;;14.18;7.50;;;;;;;22.14;61.93;100528.52;1819200;77;22209;-58
2021/06/29 02:23:14;;;;;;;11.12;7.03;;;;;;;22.10;62.00;100529.16;1834463;77;22579;-53
2021/06/29 02:25:47;;;;;;;11.00;8.15;;;;;;;22.08;62.04;100528.37;1825222;77;22576;-58
2021/06/29 02:28:20;;;;;;;10.60;8.18;;;;;;;22.07;62.11;100529.36;1836338;77;22575;-53
2021/06/29 02:30:53;;;;;;;11.80;8.43;;;;;;;22.04;62.24;100534.02;1824069;77;22760;-54
2021/06/29 02:33:26;;;;;;;12.70;8.85;;;;;;;22.01;62.34;100533.73;1834483;77;22168;-53
2021/06/29 02:35:59;;;;;;;11.60;8.70;;;;;;;22.04;62.28;100541.59;1818173;77;22214;-59
2021/06/29 02:38:51;;;;;;;12.73;8.68;;;;;;;22.01;62.37;100536.88;1850670;77;22131;-53
2021/06/29 02:41:24;;;;;;;9.78;7.60;;;;;;;22.02;62.48;100538.60;1834939;77;22197;-59
2021/06/29 02:43:58;;;;;;;10.93;8.15;;;;;;;22.04;62.18;100543.40;1852814;77;22574;-53
2021/06/29 02:46:34;;;;;;;10.43;7.78;;;;;;;22.09;61.87;100546.19;1821627;77;22177;-53
2021/06/29 02:49:25;;;;;;;11.73;8.28;;;;;;;22.13;61.67;100550.42;1852837;77;22195;-58
2021/06/29 02:51:58;;;;;;;14.83;7.80;;;;;;;22.06;61.96;100554.44;1826766;77;22166;-54
2021/06/29 02:54:32;;;;;;;13.05;8.25;;;;;;;22.03;61.99;100553.27;1834560;77;22176;-59
2021/06/29 02:57:23;;;;;;;11.15;8.43;;;;;;;22.04;62.05;100545.62;1801484;77;22222;-53
2021/06/29 02:59:56;;;;;;;11.88;8.68;;;;;;;22.01;62.17;100543.57;1852057;77;22178;-53
2021/06/29 03:02:30;;;;;;;13.95;9.25;;;;;;;22.03;62.27;100547.03;1819964;77;22225;-53
2021/06/29 03:05:04;;;;;;;13.05;8.43;;;;;;;21.98;62.53;100547.31;1834492;77;22179;-54
2021/06/29 03:07:37;;;;;;;12.78;8.93;;;;;;;21.96;62.70;100538.00;1805261;77;22139;-59
2021/06/29 03:10:30;;;;;;;13.30;8.58;;;;;;;21.98;62.71;100541.95;1818596;77;22218;-53
2021/06/29 03:13:03;;;;;;;14.50;8.53;;;;;;;22.10;62.56;100543.05;1852865;77;22175;-54
2021/06/29 03:15:55;;;;;;;11.53;8.78;;;;;;;22.24;62.42;100539.55;1823181;77;22218;-54
2021/06/29 03:18:29;;;;;;;14.20;9.43;;;;;;;22.23;62.79;100540.50;1824424;77;22209;-53
2021/06/29 03:21:02;;;;;;;12.40;8.55;;;;;;;22.34;62.82;100534.50;1822082;77;22162;-59
2021/06/29 03:23:35;;;;;;;14.07;9.28;;;;;;;22.43;62.56;100533.53;1834495;77;22175;-59
2021/06/29 03:26:09;;;;;;;11.50;9.15;;;;;;;22.51;62.48;100537.08;1819757;77;22226;-53
2021/06/29 03:28:42;;;;;;;14.15;8.75;;;;;;;22.57;62.53;100536.72;1833784;77;22120;-59
2021/06/29 03:31:18;;;;;;;13.18;8.78;;;;;;;22.58;62.63;100526.38;1836422;77;22173;-60
2021/06/29 03:34:10;;;;;;;19.55;10.15;;;;;;;22.68;62.71;100534.72;1852808;77;22143;-53
2021/06/29 03:36:44;;;;;;;28.45;10.28;;;;;;;22.69;62.83;100536.45;1811627;77;22202;-53
2021/06/29 03:39:35;;;;;;;80.07;13.38;;;;;;;22.78;62.89;100535.50;1852942;77;22631;-60
2021/06/29 03:42:09;;;;;;;22.48;11.28;;;;;;;22.85;62.97;100530.16;1807020;77;22170;-53
2021/06/29 03:44:42;;;;;;;19.62;10.65;;;;;;;22.92;62.86;100531.97;1837908;77;22213;-53
2021/06/29 03:47:15;;;;;;;14.65;9.70;;;;;;;23.03;62.59;100544.25;1797721;77;22178;-53
2021/06/29 03:49:48;;;;;;;28.77;10.65;;;;;;;23.10;62.49;100538.00;1834481;77;22614;-53
2021/06/29 03:52:21;;;;;;;15.10;10.30;;;;;;;23.16;62.55;100535.82;1821805;77;22169;-60
2021/06/29 03:54:55;;;;;;;18.62;10.38;;;;;;;23.23;62.71;100528.27;1823119;77;22174;-53
2021/06/29 03:57:28;;;;;;;29.07;12.05;;;;;;;23.35;62.53;100531.98;1820142;77;23268;-60
2021/06/29 04:00:09;;;;;;;16.75;10.85;;;;;;;23.46;62.21;100529.48;1833625;77;22164;-60
2021/06/29 04:03:01;;;;;;;13.72;9.13;;;;;;;23.57;62.40;100526.59;1828284;77;22171;-60
2021/06/29 04:05:34;;;;;;;17.55;9.85;;;;;;;23.59;62.28;100534.07;1828303;77;22194;-54
2021/06/29 04:08:27;;;;;;;16.35;9.75;;;;;;;23.73;62.28;100528.64;1834452;77;22167;-60
2021/06/29 04:11:00;;;;;;;12.05;9.55;;;;;;;23.89;62.09;100530.33;1822541;77;22601;-53
2021/06/29 04:13:33;;;;;;;11.70;9.30;;;;;;;23.98;62.28;100527.07;1830968;77;22591;-60
2021/06/29 04:16:06;;;;;;;13.00;9.73;;;;;;;24.11;62.30;100523.54;1821064;77;22174;-61
2021/06/29 04:18:40;;;;;;;14.65;10.28;;;;;;;24.27;62.21;100519.36;1834476;77;22176;-59
2021/06/29 04:21:13;;;;;;;16.75;10.00;;;;;;;24.32;62.16;100517.19;1817657;77;22586;-60
2021/06/29 04:23:46;;;;;;;15.78;10.75;;;;;;;24.45;62.04;100522.12;1834460;77;22580;-60
2021/06/29 04:26:38;;;;;;;52.23;17.77;;;;;;;24.57;61.67;100524.44;1813669;77;22214;-60
2021/06/29 04:29:11;;;;;;;20.32;11.73;;;;;;;24.69;61.98;100523.22;1834451;77;22176;-53
2021/06/29 04:31:45;;;;;;;13.43;10.15;;;;;;;24.88;62.02;100522.35;1824132;77;22211;-59
2021/06/29 04:34:18;;;;;;;13.08;10.15;;;;;;;25.04;61.98;100524.81;1834571;77;22176;-54
2021/06/29 04:36:51;;;;;;;14.05;9.60;;;;;;;25.20;62.05;100525.92;1811059;77;22214;-60
2021/06/29 04:39:44;;;;;;;14.98;9.30;;;;;;;25.34;61.77;100520.88;1831646;77;22599;-55
2021/06/29 04:42:17;;;;;;;20.23;10.72;;;;;;;25.53;61.43;100517.73;1822839;77;22201;-54
2021/06/29 04:45:11;;;;;;;14.55;9.35;;;;;;;25.73;61.13;100519.92;1852161;77;22171;-53
2021/06/29 04:50:19;;;;;;;29.48;9.68;;;;;;;26.09;60.21;100519.02;1806594;77;22664;-54
2021/06/29 04:52:53;;;;;;;17.52;8.53;;;;;;;26.21;59.75;100525.84;1834459;77;22679;-54
2021/06/29 04:55:45;;;;;;;11.30;8.20;;;;;;;26.37;59.37;100522.31;1844060;77;22173;-60
2021/06/29 04:58:18;;;;;;;10.60;9.15;;;;;;;26.79;58.13;100519.11;1828550;77;22594;-54
2021/06/29 05:00:52;;;;;;;11.28;9.53;;;;;;;26.82;58.30;100527.47;1804273;77;22230;-54
2021/06/29 05:03:26;;;;;;;12.82;8.80;;;;;;;27.11;57.52;100522.97;1834490;77;22176;-60
2021/06/29 05:06:19;;;;;;;10.35;8.90;;;;;;;27.35;56.80;100517.90;1818353;77;22190;-54
2021/06/29 05:08:52;;;;;;;10.65;8.35;;;;;;;27.56;56.61;100516.20;1826390;77;22176;-54
2021/06/29 05:11:45;;;;;;;9.75;8.33;;;;;;;27.79;56.12;100520.69;1794023;77;22216;-54
2021/06/29 05:14:18;;;;;;;9.85;8.55;;;;;;;27.68;56.37;100521.55;1824306;77;22166;-54
2021/06/29 05:16:51;;;;;;;9.78;8.30;;;;;;;28.07;55.58;100516.50;1814008;77;22183;-59
2021/06/29 05:19:24;;;;;;;9.00;7.83;;;;;;;28.15;55.00;100515.91;1831272;77;22191;-59
2021/06/29 05:21:57;;;;;;;11.83;8.25;;;;;;;28.25;54.86;100508.73;1809565;77;22563;-60
2021/06/29 05:24:50;;;;;;;9.13;7.53;;;;;;;28.41;54.25;100510.09;1852785;77;22598;-60
2021/06/29 05:27:23;;;;;;;8.93;7.15;;;;;;;28.62;53.99;100504.19;1796270;77;22213;-60
2021/06/29 05:30:17;;;;;;;8.75;6.70;;;;;;;28.82;53.08;100511.59;1813731;77;22182;-60
2021/06/29 05:32:50;;;;;;;8.98;7.97;;;;;;;29.19;51.69;100509.17;1800996;77;27963;-60
2021/06/29 05:35:25;;;;;;;9.20;6.80;;;;;;;29.26;51.94;100508.63;1815851;77;22194;-60
2021/06/29 05:37:59;;;;;;;9.28;8.20;;;;;;;29.37;51.20;100516.17;1819246;77;22586;-60
2021/06/29 05:40:32;;;;;;;12.37;7.78;;;;;;;29.60;50.57;100515.09;1816842;77;22203;-60
2021/06/29 05:43:05;;;;;;;8.70;6.15;;;;;;;29.83;49.74;100507.55;1818609;77;22183;-59
2021/06/29 05:45:38;;;;;;;10.13;6.33;;;;;;;30.02;48.62;100514.03;1811193;77;22183;-60
2021/06/29 05:48:18;;;;;;;12.93;6.10;;;;;;;30.10;47.08;100512.31;1816954;77;22609;-59
2021/06/29 05:50:50;;;;;;;9.58;6.75;;;;;;;30.15;46.24;100518.68;1808215;77;22637;-60
2021/06/29 05:53:42;;;;;;;10.38;6.37;;;;;;;30.30;46.43;100518.22;1819357;77;22173;-60
2021/06/29 05:56:16;;;;;;;7.12;5.40;;;;;;;30.44;44.50;100511.52;1798460;77;22239;-60
2021/06/29 05:58:49;;;;;;;10.13;6.62;;;;;;;30.76;43.64;100512.52;1852837;77;22582;-59
2021/06/29 06:01:22;;;;;;;6.40;5.30;;;;;;;31.00;44.17;100517.44;1817590;77;22205;-60
2021/06/29 06:04:14;;;;;;;11.73;9.38;;;;;;;31.05;44.27;100511.57;1822830;77;22613;-60
2021/06/29 06:06:47;;;;;;;9.33;6.33;;;;;;;31.35;43.90;100514.19;1811592;77;22222;-60
2021/06/29 06:09:59;;;;;;;13.83;7.50;;;;;;;31.60;43.05;100516.16;1832903;77;22668;-61
2021/06/29 06:12:32;;;;;;;9.53;5.95;;;;;;;31.76;42.16;100516.52;1905709;74;22150;-60
2021/06/29 06:15:25;;;;;;;5.58;5.08;;;;;;;32.02;42.18;100512.52;1830528;77;22183;-60
2021/06/29 06:17:58;;;;;;;9.70;5.05;;;;;;;32.43;41.80;100513.41;1834470;77;22571;-60
2021/06/29 06:20:51;;;;;;;9.03;4.55;;;;;;;32.59;39.42;100504.48;1841386;77;22157;-60
2021/06/29 06:23:24;;;;;;;45.25;10.28;;;;;;;32.85;38.03;100503.14;1807912;77;22569;-60
2021/06/29 06:26:16;;;;;;;20.95;8.38;;;;;;;32.70;37.62;100504.19;1817261;77;22223;-60
2021/06/29 06:28:50;;;;;;;27.07;7.92;;;;;;;32.68;36.84;100509.47;1852845;77;22175;-60
2021/06/29 06:31:23;;;;;;;9.83;4.37;;;;;;;32.78;37.30;100516.51;1814785;77;22628;-60
2021/06/29 06:33:56;;;;;;;10.23;4.00;;;;;;;32.93;35.48;100512.70;1834488;77;22180;-59
2021/06/29 06:36:29;;;;;;;7.55;4.17;;;;;;;33.40;36.08;100514.63;1808944;77;22605;-60
2021/06/29 06:39:04;;;;;;;3.90;3.15;;;;;;;33.48;35.70;100517.91;1833741;77;22559;-60
2021/06/29 06:41:56;;;;;;;7.50;3.80;;;;;;;33.74;34.75;100516.94;1805887;77;22215;-60
2021/06/29 06:44:30;;;;;;;7.37;3.77;;;;;;;33.87;33.86;100515.95;1834591;77;22160;-60
2021/06/29 06:47:05;;;;;;;10.63;3.90;;;;;;;34.21;33.96;100521.79;1782666;77;22637;-60
2021/06/29 06:49:57;;;;;;;8.90;4.00;;;;;;;34.51;34.21;100524.02;1821580;77;22169;-60
2021/06/29 06:52:30;;;;;;;6.50;3.30;;;;;;;34.64;33.02;100524.36;1819917;77;22224;-60
2021/06/29 06:55:25;;;;;;;5.90;3.80;;;;;;;34.60;31.04;100523.48;1828927;77;22587;-60
2021/06/29 06:57:58;;;;;;;4.12;2.98;;;;;;;34.64;33.24;100526.22;1800442;77;22185;-60
2021/06/29 07:00:31;;;;;;;4.53;3.17;;;;;;;34.79;31.61;100527.22;1828938;77;22207;-60
2021/06/29 07:03:06;;;;;;;9.28;3.12;;;;;;;34.86;31.67;100525.16;1820244;77;22166;-59
2021/06/29 07:05:39;;;;;;;10.88;3.80;;;;;;;35.16;31.01;100518.58;1821308;77;22178;-61
2021/06/29 07:08:12;;;;;;;5.30;3.17;;;;;;;35.44;32.18;100520.33;1835135;77;22186;-61
2021/06/29 07:10:46;;;;;;;7.97;3.47;;;;;;;35.73;31.64;100519.67;1813422;77;22178;-61
2021/06/29 07:13:19;;;;;;;4.05;3.12;;;;;;;35.98;30.76;100526.36;1845496;77;22134;-60
2021/06/29 07:15:52;;;;;;;4.22;2.70;;;;;;;35.95;29.82;100519.02;1808088;77;22212;-61
2021/06/29 07:18:25;;;;;;;4.25;2.72;;;;;;;35.84;29.88;100518.89;1852736;77;22179;-60
2021/06/29 07:20:59;;;;;;;5.60;2.92;;;;;;;36.11;30.88;100520.27;1822665;77;22210;-61
2021/06/29 07:23:32;;;;;;;6.03;3.60;;;;;;;36.45;31.02;100520.83;1847941;77;22593;-60
2021/06/29 07:26:05;;;;;;;3.50;2.85;;;;;;;36.64;29.65;100520.84;1809516;77;22238;-61
2021/06/29 07:28:38;;;;;;;14.78;3.60;;;;;;;36.78;27.73;100520.51;1821304;77;22518;-60
2021/06/29 07:31:12;;;;;;;4.78;3.08;;;;;;;36.44;28.14;100521.33;1819852;77;22218;-60
2021/06/29 07:34:04;;;;;;;3.72;3.17;;;;;;;36.35;29.03;100520.23;1817769;77;22182;-61
2021/06/29 07:36:37;;;;;;;7.67;3.05;;;;;;;36.48;28.29;100521.86;1832009;77;22165;-61
2021/06/29 07:39:10;;;;;;;7.90;3.12;;;;;;;36.64;28.97;100523.58;1834389;77;22183;-60
2021/06/29 07:41:43;;;;;;;5.55;3.08;;;;;;;36.69;29.24;100523.88;1812713;77;22171;-61
2021/06/29 07:44:35;;;;;;;4.05;2.80;;;;;;;37.19;29.65;100521.95;1818777;77;22187;-61
2021/06/29 07:47:08;;;;;;;8.13;3.70;;;;;;;37.49;28.20;100517.29;1802130;77;22199;-61
2021/06/29 07:49:42;;;;;;;5.72;3.58;;;;;;;37.83;29.40;100514.05;1834502;77;22191;-60
2021/06/29 07:52:15;;;;;;;4.97;2.87;;;;;;;38.12;28.86;100523.22;1818565;77;22590;-61
2021/06/29 07:54:49;;;;;;;2.80;2.55;;;;;;;38.29;28.88;100517.77;1834492;77;22602;-62
2021/06/29 07:57:41;;;;;;;3.72;2.90;;;;;;;38.50;25.97;100514.67;1827478;77;22159;-61
2021/06/29 08:00:16;;;;;;;4.72;3.80;;;;;;;38.45;26.83;100519.41;1832748;77;22786;-61
2021/06/29 08:03:08;;;;;;;6.08;3.62;;;;;;;38.68;26.61;100523.27;1833445;77;22135;-61
2021/06/29 08:05:41;;;;;;;3.58;3.12;;;;;;;38.98;27.23;100520.83;1844878;77;22209;-61
2021/06/29 08:08:14;;;;;;;6.55;3.10;;;;;;;39.20;27.30;100529.82;1834390;77;22156;-60
2021/06/29 08:10:49;;;;;;;4.72;2.65;;;;;;;39.30;27.17;100531.34;1815300;77;22209;-61
2021/06/29 08:13:41;;;;;;;4.97;3.02;;;;;;;39.49;25.31;100533.88;1852762;77;22155;-60
2021/06/29 08:16:14;;;;;;;4.25;2.90;;;;;;;39.41;24.42;100529.39;1819250;77;22174;-61
2021/06/29 08:19:07;;;;;;;3.75;3.00;;;;;;;39.13;24.62;100527.56;1848295;77;22179;-61
2021/06/29 08:21:40;;;;;;;4.85;2.80;;;;;;;39.05;23.75;100526.35;1809746;77;22611;-61
2021/06/29 08:24:13;;;;;;;3.20;2.47;;;;;;;39.08;24.84;100524.57;1825709;77;22186;-59
2021/06/29 08:26:46;;;;;;;3.85;2.87;;;;;;;39.01;24.51;100525.06;1811963;77;22641;-61
2021/06/29 08:29:19;;;;;;;6.25;3.00;;;;;;;38.67;23.28;100525.69;1845248;77;22131;-60
2021/06/29 08:32:13;;;;;;;3.65;2.95;;;;;;;38.46;24.32;100518.86;1804922;77;22223;-61
2021/06/29 08:34:46;;;;;;;4.53;2.90;;;;;;;38.59;24.22;100508.52;1852385;77;22203;-61
2021/06/29 08:37:39;;;;;;;3.05;2.27;;;;;;;38.55;23.98;100513.55;1846184;77;22544;-60
2021/06/29 08:40:13;;;;;;;3.75;2.70;;;;;;;38.18;24.62;100515.05;1827010;77;22159;-61
2021/06/29 08:43:06;;;;;;;3.37;2.55;;;;;;;38.14;24.52;100515.12;1834347;77;22172;-61
2021/06/29 08:45:40;;;;;;;3.58;2.58;;;;;;;38.30;24.05;100511.73;1827109;77;22209;-61
2021/06/29 08:48:13;;;;;;;4.55;2.77;;;;;;;38.34;24.58;100512.53;1807832;77;22139;-61
2021/06/29 08:51:06;;;;;;;4.50;3.08;;;;;;;38.46;24.01;100514.23;1839361;77;22177;-62
2021/06/29 08:53:39;;;;;;;5.28;2.85;;;;;;;38.55;24.97;100511.33;1834434;77;22152;-61
2021/06/29 08:56:15;;;;;;;7.95;3.27;;;;;;;38.74;23.93;100515.27;1813157;77;22633;-61
2021/06/29 08:59:07;;;;;;;3.98;3.10;;;;;;;39.00;23.41;100511.84;1832526;77;22625;-61
2021/06/29 09:01:40;;;;;;;3.83;2.70;;;;;;;39.15;23.48;100510.83;1813290;77;22703;-61
2021/06/29 09:04:14;;;;;;;5.12;2.90;;;;;;;39.21;22.88;100508.64;1834382;77;22179;-61
2021/06/29 09:06:47;;;;;;;4.40;3.30;;;;;;;39.21;22.93;100509.50;1797854;77;22795;-61
2021/06/29 09:09:31;;;;;;;3.62;2.83;;;;;;;39.39;23.35;100510.34;1826987;77;22134;-62
2021/06/29 09:12:45;;;;;;;4.30;2.55;;;;;;;39.47;23.43;100503.78;1822073;77;22610;-62
2021/06/29 09:15:37;;;;;;;5.05;3.30;;;;;;;39.55;22.55;100509.11;1850170;77;22136;-62
2021/06/29 09:18:16;;;;;;;4.12;2.83;;;;;;;39.47;23.31;100503.78;1832684;77;22180;-62
2021/06/29 09:21:02;;;;;;;3.37;2.52;;;;;;;39.46;23.58;100499.34;1824907;77;22206;-61
2021/06/29 09:23:40;;;;;;;3.80;2.83;;;;;;;39.53;23.01;100496.59;1834399;77;22595;-61
2021/06/29 09:26:40;;;;;;;5.62;2.70;;;;;;;39.45;23.40;100496.80;1814949;77;22590;-61
2021/06/29 09:29:16;;;;;;;23.32;3.47;;;;;;;39.47;23.95;100493.32;1852819;77;22162;-61
2021/06/29 09:31:50;;;;;;;9.03;3.58;;;;;;;39.37;24.43;100501.95;1829166;77;22205;-61
2021/06/29 09:34:24;;;;;;;9.93;4.87;;;;;;;39.42;24.29;100493.92;1834529;77;22183;-61
2021/06/29 09:37:26;;;;;;;14.50;5.60;;;;;;;39.72;23.93;100496.34;1795278;77;22185;-61
2021/06/29 09:40:09;;;;;;;8.20;4.40;;;;;;;40.05;23.65;100493.30;1834494;77;22160;-61
2021/06/29 09:42:43;;;;;;;5.50;3.62;;;;;;;40.14;22.82;100492.90;1824449;77;22151;-61
2021/06/29 09:45:33;;;;;;;3.83;3.22;;;;;;;40.14;22.59;100492.03;1830239;77;22155;-61
2021/06/29 09:48:44;;;;;;;4.85;3.00;;;;;;;40.01;23.36;100490.13;1852736;77;22629;-61
2021/06/29 09:51:21;;;;;;;4.03;2.90;;;;;;;39.88;22.62;100488.74;1818553;77;22214;-61
2021/06/29 09:54:02;;;;;;;3.35;2.80;;;;;;;39.68;24.03;100493.69;1830872;77;22577;-60
2021/06/29 09:56:54;;;;;;;4.67;3.15;;;;;;;39.74;24.06;100480.45;1827997;77;22165;-60
2021/06/29 09:59:27;;;;;;;3.87;2.90;;;;;;;39.70;24.36;100484.69;1834449;77;22175;-60
2021/06/29 10:02:08;;;;;;;4.97;3.02;;;;;;;39.59;24.79;100476.48;1808727;77;22601;-60
2021/06/29 10:04:43;;;;;;;3.77;2.85;;;;;;;39.52;24.84;100481.16;1827911;77;22144;-60
2021/06/29 10:07:39;;;;;;;3.98;3.00;;;;;;;39.42;25.95;100480.16;1834414;77;22611;-60
2021/06/29 10:10:18;;;;;;;3.33;2.92;;;;;;;39.32;24.31;100473.68;1833384;77;22180;-61
2021/06/29 10:13:16;;;;;;;9.68;3.33;;;;;;;39.35;25.17;100467.77;1852701;77;22179;-61
2021/06/29 10:15:49;;;;;;;4.92;3.22;;;;;;;39.51;24.77;100470.66;1801489;77;22183;-61
2021/06/29 10:21:28;;;;;;;4.42;3.22;;;;;;;39.32;24.74;100464.56;1834536;77;22206;-61
2021/06/29 10:24:24;;;;;;;6.30;3.10;;;;;;;39.13;23.48;100467.03;1790485;77;22205;-61
2021/06/29 10:26:59;;;;;;;3.58;3.17;;;;;;;38.82;24.07;100471.09;1802832;77;22602;-62
2021/06/29 10:29:32;;;;;;;6.67;3.72;;;;;;;38.69;25.14;100478.73;1819416;77;22210;-61
2021/06/29 10:32:11;;;;;;;3.65;3.10;;;;;;;38.78;24.32;100476.68;1802313;77;22259;-62
2021/06/29 10:34:44;;;;;;;6.25;3.55;;;;;;;38.99;24.64;100477.13;1798010;77;22164;-61
2021/06/29 10:37:37;;;;;;;4.28;3.20;;;;;;;39.10;23.06;100475.14;1833594;77;22543;-61
2021/06/29 10:40:12;;;;;;;6.55;3.12;;;;;;;39.22;23.65;100471.81;1829365;77;22144;-62
2021/06/29 10:42:46;;;;;;;4.97;3.83;;;;;;;39.46;23.84;100470.97;1811387;77;28392;-61
2021/06/29 10:45:19;;;;;;;4.72;3.30;;;;;;;39.53;23.60;100467.17;1823609;77;22202;-62
2021/06/29 10:48:20;;;;;;;3.95;3.27;;;;;;;39.53;24.06;100459.42;1833155;77;22175;-61
2021/06/29 10:50:56;;;;;;;3.65;3.25;;;;;;;39.50;23.33;100459.32;1840842;77;22637;-62
2021/06/29 10:53:48;;;;;;;9.55;3.75;;;;;;;39.39;23.53;100452.53;1852653;77;22143;-61
2021/06/29 10:56:25;;;;;;;48.28;6.25;;;;;;;39.26;24.10;100453.83;1796121;77;22246;-62
2021/06/29 10:58:56;;;;;;;5.37;4.03;;;;;;;39.31;24.25;100453.20;1818969;77;28001;-62
2021/06/29 11:01:36;;;;;;;4.40;3.20;;;;;;;40.36;23.04;100449.96;1815834;77;22629;-62
2021/06/29 11:04:09;;;;;;;3.62;3.08;;;;;;;39.33;24.13;100456.63;1827724;77;22152;-61
2021/06/29 11:07:02;;;;;;;4.03;3.30;;;;;;;41.00;22.41;100447.98;1801445;77;22226;-61
2021/06/29 11:09:58;;;;;;;3.98;3.45;;;;;;;41.37;21.95;100446.85;1814080;77;22601;-61
2021/06/29 11:12:34;;;;;;;12.07;4.08;;;;;;;41.65;21.34;100447.55;1819965;77;22183;-61
2021/06/29 11:15:09;;;;;;;7.07;4.10;;;;;;;40.82;21.80;100440.42;1836476;77;28379;-61
2021/06/29 11:18:02;;;;;;;4.72;3.33;;;;;;;41.01;21.98;100442.26;1834434;77;22140;-61
2021/06/29 11:20:49;;;;;;;4.53;3.33;;;;;;;41.00;22.53;100443.84;1846224;77;22170;-61
2021/06/29 11:23:39;;;;;;;6.60;3.52;;;;;;;40.93;21.84;100432.84;1824450;77;22590;-61
2021/06/29 11:26:17;;;;;;;7.33;3.47;;;;;;;40.80;22.29;100428.75;1807783;77;22214;-61
2021/06/29 11:29:09;;;;;;;4.00;3.45;;;;;;;40.97;22.74;100436.86;1829279;77;22155;-61
2021/06/29 11:31:43;;;;;;;4.35;3.40;;;;;;;40.89;22.31;100437.94;1812738;77;22723;-61
2021/06/29 11:34:18;;;;;;;5.05;3.95;;;;;;;39.26;24.28;100441.45;1829141;77;22570;-60
2021/06/29 11:36:54;;;;;;;4.33;3.80;;;;;;;38.90;25.96;100437.92;1795446;77;28382;-61
2021/06/29 11:39:58;;;;;;;4.35;3.80;;;;;;;38.58;26.07;100435.33;1833618;77;22191;-60
2021/06/29 11:42:31;;;;;;;22.77;5.03;;;;;;;38.12;26.03;100433.41;1819437;77;22213;-61
2021/06/29 11:45:06;;;;;;;6.15;4.05;;;;;;;37.75;27.26;100431.28;1811966;77;22143;-60
2021/06/29 11:47:40;;;;;;;7.97;4.30;;;;;;;37.42;27.65;100431.25;1852655;77;22159;-59
2021/06/29 11:50:16;;;;;;;7.10;4.05;;;;;;;37.14;28.14;100427.03;1832961;77;22177;-60
2021/06/29 11:53:22;;;;;;;8.23;4.97;;;;;;;36.88;29.08;100426.48;1836964;77;22563;-60
2021/06/29 11:55:55;;;;;;;7.30;3.67;;;;;;;36.79;29.52;100424.05;1823520;77;22645;-60
2021/06/29 11:58:28;;;;;;;4.55;4.12;;;;;;;37.37;28.08;100420.00;1852749;77;22175;-60
2021/06/29 12:01:06;;;;;;;6.05;4.83;;;;;;;38.09;26.61;100419.53;1822144;77;22594;-60
2021/06/29 12:04:05;;;;;;;16.95;5.12;;;;;;;38.17;27.11;100419.06;1828345;77;22551;-60
2021/06/29 12:07:05;;;;;;;7.95;3.87;;;;;;;38.26;27.27;100419.23;1809561;77;22225;-60
2021/06/29 12:09:39;;;;;;;9.38;4.17;;;;;;;38.23;26.63;100412.77;1834358;77;22160;-60
2021/06/29 12:12:23;;;;;;;4.95;4.00;;;;;;;38.27;27.19;100414.58;1802752;77;22191;-60
2021/06/29 12:15:03;;;;;;;9.03;4.65;;;;;;;38.23;26.74;100410.86;1852782;77;22127;-60
2021/06/29 12:17:39;;;;;;;4.17;3.77;;;;;;;38.14;27.16;100401.09;1830087;77;22543;-60
2021/06/29 12:20:16;;;;;;;6.10;4.35;;;;;;;37.17;29.13;100397.30;1833157;77;22179;-60
2021/06/29 12:23:11;;;;;;;5.97;4.77;;;;;;;38.14;28.06;100397.48;1812905;77;27993;-59
2021/06/29 12:25:48;;;;;;;6.05;4.35;;;;;;;38.30;28.07;100391.69;1825842;77;22175;-60